sensor_id;sensor_type;location;lat;lon;timestamp;temperature;humidity
29777;DHT22;16677;52.224;7.484;2023-07-09T00:02:22;24.30;1.00
29777;DHT22;16677;52.224;7.484;2023-07-09T00:04:51;24.30;1.00
29777;DHT22;16677;52.224;7.484;2023-07-09T00:07:26;24.20;1.00
29777;DHT22;16677;52.224;7.484;2023-07-09T00:09:57;23.90;1.00
29777;DHT22;16677;52.224;7.484;2023-07-09T00:12:25;23.90;1.00
29777;DHT22;16677;52.224;7.484;2023-07-09T00:14:52;23.90;1.00
29777;DHT22;16677;52.224;7.484;2023-07-09T00:17:26;23.80;1.00
29777;DHT22;16677;52.224;7.484;2023-07-09T00:19:55;23.70;1.00
29777;DHT22;16677;52.224;7.484;2023-07-09T00:24:57;23.60;1.00
29777;DHT22;16677;52.224;7.484;2023-07-09T00:27:29;23.50;1.00
29777;DHT22;16677;52.224;7.484;2023-07-09T00:29:58;23.60;1.00
29777;DHT22;16677;52.224;7.484;2023-07-09T00:32:25;23.60;1.00
29777;DHT22;16677;52.224;7.484;2023-07-09T00:34:53;23.60;1.00
29777;DHT22;16677;52.224;7.484;2023-07-09T00:37:24;23.50;1.00
29777;DHT22;16677;52.224;7.484;2023-07-09T00:39:54;23.50;1.00
29777;DHT22;16677;52.224;7.484;2023-07-09T00:42:22;23.40;1.00
29777;DHT22;16677;52.224;7.484;2023-07-09T00:44:52;23.40;1.00
29777;DHT22;16677;52.224;7.484;2023-07-09T00:55:53;23.10;1.00
29777;DHT22;16677;52.224;7.484;2023-07-09T00:58:24;23.00;1.00
29777;DHT22;16677;52.224;7.484;2023-07-09T01:00:59;22.90;1.00
29777;DHT22;16677;52.224;7.484;2023-07-09T01:03:36;22.80;1.00
29777;DHT22;16677;52.224;7.484;2023-07-09T01:06:09;22.80;1.00
29777;DHT22;16677;52.224;7.484;2023-07-09T01:08:39;22.90;1.00
29777;DHT22;16677;52.224;7.484;2023-07-09T01:11:16;23.00;1.00
29777;DHT22;16677;52.224;7.484;2023-07-09T01:13:51;23.00;1.00
29777;DHT22;16677;52.224;7.484;2023-07-09T01:16:22;22.80;1.00
29777;DHT22;16677;52.224;7.484;2023-07-09T01:18:52;22.70;1.00
29777;DHT22;16677;52.224;7.484;2023-07-09T01:21:20;22.90;1.00
29777;DHT22;16677;52.224;7.484;2023-07-09T01:23:49;22.90;1.00
29777;DHT22;16677;52.224;7.484;2023-07-09T01:26:20;22.90;1.00
29777;DHT22;16677;52.224;7.484;2023-07-09T01:28:55;22.90;1.00
29777;DHT22;16677;52.224;7.484;2023-07-09T01:31:23;22.90;1.00
29777;DHT22;16677;52.224;7.484;2023-07-09T01:33:51;22.70;1.00
29777;DHT22;16677;52.224;7.484;2023-07-09T01:36:21;22.90;1.00
29777;DHT22;16677;52.224;7.484;2023-07-09T01:38:52;23.10;1.00
29777;DHT22;16677;52.224;7.484;2023-07-09T01:41:23;22.70;1.00
29777;DHT22;16677;52.224;7.484;2023-07-09T01:43:51;22.60;1.00
29777;DHT22;16677;52.224;7.484;2023-07-09T01:46:18;22.50;1.00
29777;DHT22;16677;52.224;7.484;2023-07-09T01:48:45;22.60;1.00
29777;DHT22;16677;52.224;7.484;2023-07-09T01:51:15;22.50;1.00
29777;DHT22;16677;52.224;7.484;2023-07-09T01:53:44;22.50;1.00
29777;DHT22;16677;52.224;7.484;2023-07-09T01:56:11;22.50;1.00
29777;DHT22;16677;52.224;7.484;2023-07-09T01:58:38;22.50;1.00
29777;DHT22;16677;52.224;7.484;2023-07-09T02:01:09;22.40;1.00
29777;DHT22;16677;52.224;7.484;2023-07-09T02:03:37;22.30;1.00
29777;DHT22;16677;52.224;7.484;2023-07-09T02:06:04;22.30;1.00
29777;DHT22;16677;52.224;7.484;2023-07-09T02:08:37;22.20;1.00
29777;DHT22;16677;52.224;7.484;2023-07-09T02:11:04;22.30;1.00
29777;DHT22;16677;52.224;7.484;2023-07-09T02:13:32;22.20;1.00
29777;DHT22;16677;52.224;7.484;2023-07-09T02:15:59;22.10;1.00
29777;DHT22;16677;52.224;7.484;2023-07-09T02:18:28;21.90;1.00
29777;DHT22;16677;52.224;7.484;2023-07-09T02:20:56;21.80;1.00
29777;DHT22;16677;52.224;7.484;2023-07-09T02:23:27;21.90;1.00
29777;DHT22;16677;52.224;7.484;2023-07-09T02:25:55;21.90;1.00
29777;DHT22;16677;52.224;7.484;2023-07-09T02:28:23;21.90;1.00
29777;DHT22;16677;52.224;7.484;2023-07-09T02:30:50;21.80;1.00
29777;DHT22;16677;52.224;7.484;2023-07-09T02:33:19;21.70;1.00
29777;DHT22;16677;52.224;7.484;2023-07-09T02:35:47;21.60;1.00
29777;DHT22;16677;52.224;7.484;2023-07-09T02:38:14;21.80;1.00
29777;DHT22;16677;52.224;7.484;2023-07-09T02:40:42;22.00;1.00
29777;DHT22;16677;52.224;7.484;2023-07-09T02:43:10;22.00;1.00
29777;DHT22;16677;52.224;7.484;2023-07-09T02:45:37;22.20;1.00
29777;DHT22;16677;52.224;7.484;2023-07-09T02:48:05;22.20;1.00
29777;DHT22;16677;52.224;7.484;2023-07-09T02:50:33;22.10;1.00
29777;DHT22;16677;52.224;7.484;2023-07-09T02:53:01;22.20;1.00
29777;DHT22;16677;52.224;7.484;2023-07-09T02:55:28;22.00;1.00
29777;DHT22;16677;52.224;7.484;2023-07-09T02:57:56;21.60;1.00
29777;DHT22;16677;52.224;7.484;2023-07-09T03:00:23;21.40;1.00
29777;DHT22;16677;52.224;7.484;2023-07-09T03:02:51;21.50;1.00
29777;DHT22;16677;52.224;7.484;2023-07-09T03:05:18;21.70;1.00
29777;DHT22;16677;52.224;7.484;2023-07-09T03:07:45;21.70;1.00
29777;DHT22;16677;52.224;7.484;2023-07-09T03:10:12;21.80;1.00
29777;DHT22;16677;52.224;7.484;2023-07-09T03:12:40;21.80;1.00
29777;DHT22;16677;52.224;7.484;2023-07-09T03:15:07;21.60;1.00
29777;DHT22;16677;52.224;7.484;2023-07-09T03:17:35;21.60;1.00
29777;DHT22;16677;52.224;7.484;2023-07-09T03:20:03;21.60;1.00
29777;DHT22;16677;52.224;7.484;2023-07-09T03:22:31;21.50;1.00
29777;DHT22;16677;52.224;7.484;2023-07-09T03:24:58;21.30;1.00
29777;DHT22;16677;52.224;7.484;2023-07-09T03:27:26;21.30;1.00
29777;DHT22;16677;52.224;7.484;2023-07-09T03:29:53;21.30;1.00
29777;DHT22;16677;52.224;7.484;2023-07-09T03:32:20;21.00;1.00
29777;DHT22;16677;52.224;7.484;2023-07-09T03:34:47;20.90;1.00
29777;DHT22;16677;52.224;7.484;2023-07-09T03:37:15;20.80;1.00
29777;DHT22;16677;52.224;7.484;2023-07-09T03:39:42;20.70;1.00
29777;DHT22;16677;52.224;7.484;2023-07-09T03:42:12;20.60;1.00
29777;DHT22;16677;52.224;7.484;2023-07-09T03:44:40;20.50;1.00
29777;DHT22;16677;52.224;7.484;2023-07-09T03:47:07;20.50;1.00
29777;DHT22;16677;52.224;7.484;2023-07-09T03:49:35;20.70;1.00
29777;DHT22;16677;52.224;7.484;2023-07-09T03:52:03;20.80;1.00
29777;DHT22;16677;52.224;7.484;2023-07-09T03:54:30;20.80;1.00
29777;DHT22;16677;52.224;7.484;2023-07-09T03:56:58;20.70;1.00
29777;DHT22;16677;52.224;7.484;2023-07-09T03:59:25;20.90;1.00
29777;DHT22;16677;52.224;7.484;2023-07-09T04:01:52;21.10;1.00
29777;DHT22;16677;52.224;7.484;2023-07-09T04:04:20;21.30;1.00
29777;DHT22;16677;52.224;7.484;2023-07-09T04:06:47;21.40;1.00
29777;DHT22;16677;52.224;7.484;2023-07-09T04:09:15;21.50;1.00
29777;DHT22;16677;52.224;7.484;2023-07-09T04:11:42;21.50;1.00
29777;DHT22;16677;52.224;7.484;2023-07-09T04:14:09;21.80;1.00
29777;DHT22;16677;52.224;7.484;2023-07-09T04:16:37;22.10;1.00
29777;DHT22;16677;52.224;7.484;2023-07-09T04:19:04;22.40;1.00
29777;DHT22;16677;52.224;7.484;2023-07-09T04:21:32;22.50;1.00
29777;DHT22;16677;52.224;7.484;2023-07-09T04:23:59;22.30;1.00
29777;DHT22;16677;52.224;7.484;2023-07-09T04:26:26;22.30;1.00
29777;DHT22;16677;52.224;7.484;2023-07-09T04:28:54;22.70;1.00
29777;DHT22;16677;52.224;7.484;2023-07-09T04:31:21;22.90;1.00
29777;DHT22;16677;52.224;7.484;2023-07-09T04:33:49;22.70;1.00
29777;DHT22;16677;52.224;7.484;2023-07-09T04:36:20;22.80;1.00
29777;DHT22;16677;52.224;7.484;2023-07-09T04:38:47;23.20;1.00
29777;DHT22;16677;52.224;7.484;2023-07-09T04:41:14;23.70;1.00
29777;DHT22;16677;52.224;7.484;2023-07-09T04:43:42;23.90;1.00
29777;DHT22;16677;52.224;7.484;2023-07-09T04:46:09;24.00;1.00
29777;DHT22;16677;52.224;7.484;2023-07-09T04:48:36;23.90;1.00
29777;DHT22;16677;52.224;7.484;2023-07-09T04:51:05;24.20;1.00
29777;DHT22;16677;52.224;7.484;2023-07-09T04:53:33;24.40;1.00
29777;DHT22;16677;52.224;7.484;2023-07-09T04:56:00;24.10;1.00
29777;DHT22;16677;52.224;7.484;2023-07-09T04:58:29;24.30;1.00
29777;DHT22;16677;52.224;7.484;2023-07-09T05:00:57;24.60;1.00
29777;DHT22;16677;52.224;7.484;2023-07-09T05:03:25;24.60;1.00
29777;DHT22;16677;52.224;7.484;2023-07-09T05:05:53;24.60;1.00
29777;DHT22;16677;52.224;7.484;2023-07-09T05:08:20;25.00;1.00
29777;DHT22;16677;52.224;7.484;2023-07-09T05:10:51;25.20;1.00
29777;DHT22;16677;52.224;7.484;2023-07-09T05:13:20;25.30;1.00
29777;DHT22;16677;52.224;7.484;2023-07-09T05:15:47;25.70;1.00
29777;DHT22;16677;52.224;7.484;2023-07-09T05:18:17;25.50;1.00
29777;DHT22;16677;52.224;7.484;2023-07-09T05:20:46;25.10;1.00
29777;DHT22;16677;52.224;7.484;2023-07-09T05:23:13;25.50;1.00
29777;DHT22;16677;52.224;7.484;2023-07-09T05:25:41;25.50;1.00
29777;DHT22;16677;52.224;7.484;2023-07-09T05:28:08;25.70;1.00
29777;DHT22;16677;52.224;7.484;2023-07-09T05:30:42;25.80;1.00
29777;DHT22;16677;52.224;7.484;2023-07-09T05:33:09;25.80;1.00
29777;DHT22;16677;52.224;7.484;2023-07-09T05:35:36;25.80;1.00
29777;DHT22;16677;52.224;7.484;2023-07-09T05:38:04;26.10;1.00
29777;DHT22;16677;52.224;7.484;2023-07-09T05:40:31;26.40;1.00
29777;DHT22;16677;52.224;7.484;2023-07-09T05:43:00;26.80;1.00
29777;DHT22;16677;52.224;7.484;2023-07-09T05:45:28;27.00;1.00
29777;DHT22;16677;52.224;7.484;2023-07-09T05:47:55;27.20;1.00
29777;DHT22;16677;52.224;7.484;2023-07-09T05:50:22;27.40;1.00
29777;DHT22;16677;52.224;7.484;2023-07-09T05:52:50;27.40;1.00
29777;DHT22;16677;52.224;7.484;2023-07-09T05:55:17;27.50;1.00
29777;DHT22;16677;52.224;7.484;2023-07-09T05:57:44;27.50;1.00
29777;DHT22;16677;52.224;7.484;2023-07-09T06:00:11;27.60;1.00
29777;DHT22;16677;52.224;7.484;2023-07-09T06:02:39;27.30;1.00
29777;DHT22;16677;52.224;7.484;2023-07-09T06:05:07;28.00;1.00
29777;DHT22;16677;52.224;7.484;2023-07-09T06:07:38;27.90;1.00
29777;DHT22;16677;52.224;7.484;2023-07-09T06:10:07;27.90;1.00
29777;DHT22;16677;52.224;7.484;2023-07-09T06:12:35;27.60;1.00
29777;DHT22;16677;52.224;7.484;2023-07-09T06:15:03;28.00;1.00
29777;DHT22;16677;52.224;7.484;2023-07-09T06:17:30;28.00;1.00
29777;DHT22;16677;52.224;7.484;2023-07-09T06:19:58;28.20;1.00
29777;DHT22;16677;52.224;7.484;2023-07-09T06:22:26;28.00;1.00
29777;DHT22;16677;52.224;7.484;2023-07-09T06:24:54;28.20;1.00
29777;DHT22;16677;52.224;7.484;2023-07-09T06:27:21;28.10;1.00
29777;DHT22;16677;52.224;7.484;2023-07-09T06:29:48;28.50;1.00
29777;DHT22;16677;52.224;7.484;2023-07-09T06:32:16;28.50;1.00
29777;DHT22;16677;52.224;7.484;2023-07-09T06:34:43;28.90;1.00
29777;DHT22;16677;52.224;7.484;2023-07-09T06:37:10;28.80;1.00
29777;DHT22;16677;52.224;7.484;2023-07-09T06:39:38;28.70;1.00
29777;DHT22;16677;52.224;7.484;2023-07-09T06:42:05;29.00;1.00
29777;DHT22;16677;52.224;7.484;2023-07-09T06:44:33;29.10;1.00
29777;DHT22;16677;52.224;7.484;2023-07-09T06:47:00;29.30;1.00
29777;DHT22;16677;52.224;7.484;2023-07-09T06:49:28;29.40;1.00
29777;DHT22;16677;52.224;7.484;2023-07-09T06:51:55;29.70;1.00
29777;DHT22;16677;52.224;7.484;2023-07-09T06:54:22;29.70;1.00
29777;DHT22;16677;52.224;7.484;2023-07-09T06:56:49;29.80;1.00
29777;DHT22;16677;52.224;7.484;2023-07-09T06:59:16;29.80;1.00
29777;DHT22;16677;52.224;7.484;2023-07-09T07:01:43;30.10;1.00
29777;DHT22;16677;52.224;7.484;2023-07-09T07:04:12;29.70;1.00
29777;DHT22;16677;52.224;7.484;2023-07-09T07:06:39;30.10;1.00
29777;DHT22;16677;52.224;7.484;2023-07-09T07:09:06;30.30;1.00
29777;DHT22;16677;52.224;7.484;2023-07-09T07:11:34;30.10;1.00
29777;DHT22;16677;52.224;7.484;2023-07-09T07:14:01;29.90;1.00
29777;DHT22;16677;52.224;7.484;2023-07-09T07:16:29;29.60;1.00
29777;DHT22;16677;52.224;7.484;2023-07-09T07:18:56;30.00;1.00
29777;DHT22;16677;52.224;7.484;2023-07-09T07:21:24;30.50;1.00
29777;DHT22;16677;52.224;7.484;2023-07-09T07:23:51;30.50;1.00
29777;DHT22;16677;52.224;7.484;2023-07-09T07:26:19;30.20;1.00
29777;DHT22;16677;52.224;7.484;2023-07-09T07:28:47;30.10;1.00
29777;DHT22;16677;52.224;7.484;2023-07-09T07:31:14;30.30;1.00
29777;DHT22;16677;52.224;7.484;2023-07-09T07:33:43;30.70;1.00
29777;DHT22;16677;52.224;7.484;2023-07-09T07:36:11;30.20;1.00
29777;DHT22;16677;52.224;7.484;2023-07-09T07:38:54;30.80;1.00
29777;DHT22;16677;52.224;7.484;2023-07-09T07:41:22;30.90;1.00
29777;DHT22;16677;52.224;7.484;2023-07-09T07:43:49;31.10;1.00
29777;DHT22;16677;52.224;7.484;2023-07-09T07:46:16;30.90;1.00
29777;DHT22;16677;52.224;7.484;2023-07-09T07:48:43;30.90;1.00
29777;DHT22;16677;52.224;7.484;2023-07-09T07:51:10;30.60;1.00
29777;DHT22;16677;52.224;7.484;2023-07-09T07:53:38;30.00;1.00
29777;DHT22;16677;52.224;7.484;2023-07-09T07:56:05;30.00;1.00
29777;DHT22;16677;52.224;7.484;2023-07-09T07:58:33;30.20;1.00
29777;DHT22;16677;52.224;7.484;2023-07-09T08:01:00;30.30;1.00
29777;DHT22;16677;52.224;7.484;2023-07-09T08:03:28;30.40;1.00
29777;DHT22;16677;52.224;7.484;2023-07-09T08:05:55;30.60;1.00
29777;DHT22;16677;52.224;7.484;2023-07-09T08:08:26;31.10;1.00
29777;DHT22;16677;52.224;7.484;2023-07-09T08:10:59;31.50;1.00
29777;DHT22;16677;52.224;7.484;2023-07-09T08:13:28;31.60;1.00
29777;DHT22;16677;52.224;7.484;2023-07-09T08:15:55;31.70;1.00
29777;DHT22;16677;52.224;7.484;2023-07-09T08:18:23;32.00;1.00
29777;DHT22;16677;52.224;7.484;2023-07-09T08:20:53;32.20;1.00
29777;DHT22;16677;52.224;7.484;2023-07-09T08:23:20;32.00;1.00
29777;DHT22;16677;52.224;7.484;2023-07-09T08:25:56;32.20;1.00
29777;DHT22;16677;52.224;7.484;2023-07-09T08:28:25;32.20;1.00
29777;DHT22;16677;52.224;7.484;2023-07-09T08:30:53;32.50;1.00
29777;DHT22;16677;52.224;7.484;2023-07-09T08:33:21;32.80;1.00
29777;DHT22;16677;52.224;7.484;2023-07-09T08:35:53;32.70;1.00
29777;DHT22;16677;52.224;7.484;2023-07-09T08:38:21;32.20;1.00
29777;DHT22;16677;52.224;7.484;2023-07-09T08:41:06;32.30;1.00
29777;DHT22;16677;52.224;7.484;2023-07-09T08:50:14;32.60;1.00
29777;DHT22;16677;52.224;7.484;2023-07-09T08:52:48;32.50;1.00
29777;DHT22;16677;52.224;7.484;2023-07-09T08:55:21;32.80;1.00
29777;DHT22;16677;52.224;7.484;2023-07-09T08:58:10;31.40;1.00
29777;DHT22;16677;52.224;7.484;2023-07-09T09:00:53;32.20;1.00
29777;DHT22;16677;52.224;7.484;2023-07-09T09:03:44;32.30;1.00
29777;DHT22;16677;52.224;7.484;2023-07-09T09:06:35;33.00;1.00
29777;DHT22;16677;52.224;7.484;2023-07-09T09:14:56;32.10;1.00
29777;DHT22;16677;52.224;7.484;2023-07-09T09:17:26;32.80;1.00
29777;DHT22;16677;52.224;7.484;2023-07-09T09:20:04;33.10;1.00
29777;DHT22;16677;52.224;7.484;2023-07-09T09:23:16;33.00;1.00
29777;DHT22;16677;52.224;7.484;2023-07-09T09:25:50;33.50;1.00
29777;DHT22;16677;52.224;7.484;2023-07-09T09:28:38;33.50;1.00
29777;DHT22;16677;52.224;7.484;2023-07-09T09:31:10;33.30;1.00
29777;DHT22;16677;52.224;7.484;2023-07-09T09:33:43;32.40;1.00
29777;DHT22;16677;52.224;7.484;2023-07-09T09:36:30;32.60;1.00
29777;DHT22;16677;52.224;7.484;2023-07-09T09:39:01;32.90;1.00
29777;DHT22;16677;52.224;7.484;2023-07-09T09:41:35;33.40;1.00
29777;DHT22;16677;52.224;7.484;2023-07-09T09:44:03;33.40;1.00
29777;DHT22;16677;52.224;7.484;2023-07-09T09:46:32;33.60;1.00
29777;DHT22;16677;52.224;7.484;2023-07-09T09:49:02;33.60;1.00
29777;DHT22;16677;52.224;7.484;2023-07-09T09:51:30;33.70;1.00
29777;DHT22;16677;52.224;7.484;2023-07-09T09:54:00;33.80;1.00
29777;DHT22;16677;52.224;7.484;2023-07-09T09:56:36;33.70;1.00
29777;DHT22;16677;52.224;7.484;2023-07-09T09:59:05;34.00;1.00
29777;DHT22;16677;52.224;7.484;2023-07-09T10:01:35;34.10;1.00
29777;DHT22;16677;52.224;7.484;2023-07-09T10:04:04;33.90;1.00
29777;DHT22;16677;52.224;7.484;2023-07-09T10:06:38;33.20;1.00
29777;DHT22;16677;52.224;7.484;2023-07-09T10:09:47;33.30;1.00
29777;DHT22;16677;52.224;7.484;2023-07-09T10:21:14;33.30;1.00
29777;DHT22;16677;52.224;7.484;2023-07-09T10:23:51;33.50;1.00
29777;DHT22;16677;52.224;7.484;2023-07-09T10:26:48;33.80;1.00
29777;DHT22;16677;52.224;7.484;2023-07-09T10:33:07;33.80;1.00
29777;DHT22;16677;52.224;7.484;2023-07-09T10:36:11;33.40;1.00
29777;DHT22;16677;52.224;7.484;2023-07-09T10:41:13;33.80;1.00
29777;DHT22;16677;52.224;7.484;2023-07-09T10:43:58;33.10;1.00
29777;DHT22;16677;52.224;7.484;2023-07-09T10:46:34;33.40;1.00
29777;DHT22;16677;52.224;7.484;2023-07-09T10:49:08;33.80;1.00
29777;DHT22;16677;52.224;7.484;2023-07-09T10:52:18;33.50;1.00
29777;DHT22;16677;52.224;7.484;2023-07-09T10:54:41;33.60;1.00
29777;DHT22;16677;52.224;7.484;2023-07-09T10:57:25;33.20;1.00
29777;DHT22;16677;52.224;7.484;2023-07-09T10:59:58;33.70;1.00
29777;DHT22;16677;52.224;7.484;2023-07-09T11:02:34;33.90;1.00
29777;DHT22;16677;52.224;7.484;2023-07-09T11:05:05;33.90;1.00
29777;DHT22;16677;52.224;7.484;2023-07-09T11:07:51;34.00;1.00
29777;DHT22;16677;52.224;7.484;2023-07-09T11:10:34;34.50;1.00
29777;DHT22;16677;52.224;7.484;2023-07-09T11:13:11;34.50;1.00
29777;DHT22;16677;52.224;7.484;2023-07-09T11:15:42;34.70;1.00
29777;DHT22;16677;52.224;7.484;2023-07-09T11:18:26;35.20;1.00
29777;DHT22;16677;52.224;7.484;2023-07-09T11:21:06;35.40;1.00
29777;DHT22;16677;52.224;7.484;2023-07-09T11:26:22;34.60;1.00
29777;DHT22;16677;52.224;7.484;2023-07-09T11:31:39;34.90;1.00
29777;DHT22;16677;52.224;7.484;2023-07-09T11:36:59;35.40;1.00
29777;DHT22;16677;52.224;7.484;2023-07-09T11:42:32;34.80;1.00
29777;DHT22;16677;52.224;7.484;2023-07-09T11:45:10;34.90;1.00
29777;DHT22;16677;52.224;7.484;2023-07-09T11:47:45;34.80;1.00
29777;DHT22;16677;52.224;7.484;2023-07-09T11:50:27;34.80;1.00
29777;DHT22;16677;52.224;7.484;2023-07-09T11:53:04;34.20;1.00
29777;DHT22;16677;52.224;7.484;2023-07-09T11:55:45;34.70;1.00
29777;DHT22;16677;52.224;7.484;2023-07-09T11:58:18;34.80;1.00
29777;DHT22;16677;52.224;7.484;2023-07-09T12:00:54;34.70;1.00
29777;DHT22;16677;52.224;7.484;2023-07-09T12:03:27;34.70;1.00
29777;DHT22;16677;52.224;7.484;2023-07-09T12:06:04;35.10;1.00
29777;DHT22;16677;52.224;7.484;2023-07-09T12:08:42;35.00;1.00
29777;DHT22;16677;52.224;7.484;2023-07-09T12:11:35;35.20;1.00
29777;DHT22;16677;52.224;7.484;2023-07-09T12:14:03;35.60;1.00
29777;DHT22;16677;52.224;7.484;2023-07-09T12:16:39;35.00;1.00
29777;DHT22;16677;52.224;7.484;2023-07-09T12:19:17;35.40;1.00
29777;DHT22;16677;52.224;7.484;2023-07-09T12:24:20;35.70;1.00
29777;DHT22;16677;52.224;7.484;2023-07-09T12:26:53;35.40;1.00
29777;DHT22;16677;52.224;7.484;2023-07-09T12:29:30;35.30;1.00
29777;DHT22;16677;52.224;7.484;2023-07-09T12:32:02;35.50;1.00
29777;DHT22;16677;52.224;7.484;2023-07-09T12:34:35;35.60;1.00
29777;DHT22;16677;52.224;7.484;2023-07-09T12:37:03;36.10;1.00
29777;DHT22;16677;52.224;7.484;2023-07-09T12:39:32;36.40;1.00
29777;DHT22;16677;52.224;7.484;2023-07-09T12:42:01;36.20;1.00
29777;DHT22;16677;52.224;7.484;2023-07-09T12:44:33;36.20;1.00
29777;DHT22;16677;52.224;7.484;2023-07-09T12:47:03;36.30;1.00
29777;DHT22;16677;52.224;7.484;2023-07-09T12:49:38;36.00;1.00
29777;DHT22;16677;52.224;7.484;2023-07-09T12:52:18;35.80;1.00
29777;DHT22;16677;52.224;7.484;2023-07-09T12:54:59;36.10;1.00
29777;DHT22;16677;52.224;7.484;2023-07-09T12:57:28;36.30;1.00
29777;DHT22;16677;52.224;7.484;2023-07-09T12:59:58;36.30;1.00
29777;DHT22;16677;52.224;7.484;2023-07-09T13:02:27;36.50;1.00
29777;DHT22;16677;52.224;7.484;2023-07-09T13:05:21;36.30;1.00
29777;DHT22;16677;52.224;7.484;2023-07-09T13:07:58;36.10;1.00
29777;DHT22;16677;52.224;7.484;2023-07-09T13:10:29;35.90;1.00
29777;DHT22;16677;52.224;7.484;2023-07-09T13:13:03;35.00;1.00
29777;DHT22;16677;52.224;7.484;2023-07-09T13:15:38;35.60;1.00
29777;DHT22;16677;52.224;7.484;2023-07-09T13:18:10;35.90;1.00
29777;DHT22;16677;52.224;7.484;2023-07-09T13:20:41;36.40;1.00
29777;DHT22;16677;52.224;7.484;2023-07-09T13:23:14;36.80;1.00
29777;DHT22;16677;52.224;7.484;2023-07-09T13:25:44;36.80;1.00
29777;DHT22;16677;52.224;7.484;2023-07-09T13:28:26;36.80;1.00
29777;DHT22;16677;52.224;7.484;2023-07-09T13:31:11;36.90;1.00
29777;DHT22;16677;52.224;7.484;2023-07-09T13:33:52;36.80;1.00
29777;DHT22;16677;52.224;7.484;2023-07-09T13:36:22;36.70;1.00
29777;DHT22;16677;52.224;7.484;2023-07-09T13:38:50;36.70;1.00
29777;DHT22;16677;52.224;7.484;2023-07-09T13:41:18;36.40;1.00
29777;DHT22;16677;52.224;7.484;2023-07-09T13:43:49;36.40;1.00
29777;DHT22;16677;52.224;7.484;2023-07-09T13:46:17;36.50;1.00
29777;DHT22;16677;52.224;7.484;2023-07-09T13:48:45;36.50;1.00
29777;DHT22;16677;52.224;7.484;2023-07-09T13:51:23;36.50;1.00
29777;DHT22;16677;52.224;7.484;2023-07-09T13:53:54;36.30;1.00
29777;DHT22;16677;52.224;7.484;2023-07-09T13:56:22;36.30;1.00
29777;DHT22;16677;52.224;7.484;2023-07-09T13:58:50;36.30;1.00
29777;DHT22;16677;52.224;7.484;2023-07-09T14:01:21;36.50;1.00
29777;DHT22;16677;52.224;7.484;2023-07-09T14:03:52;36.40;1.00
29777;DHT22;16677;52.224;7.484;2023-07-09T14:06:20;36.40;1.00
29777;DHT22;16677;52.224;7.484;2023-07-09T14:08:47;36.60;1.00
29777;DHT22;16677;52.224;7.484;2023-07-09T14:11:16;36.70;1.00
29777;DHT22;16677;52.224;7.484;2023-07-09T14:13:46;36.40;1.00
29777;DHT22;16677;52.224;7.484;2023-07-09T14:16:15;35.10;1.00
29777;DHT22;16677;52.224;7.484;2023-07-09T14:18:42;34.80;1.00
29777;DHT22;16677;52.224;7.484;2023-07-09T14:21:16;35.20;1.00
29777;DHT22;16677;52.224;7.484;2023-07-09T14:23:45;35.30;1.00
29777;DHT22;16677;52.224;7.484;2023-07-09T14:26:15;35.50;1.00
29777;DHT22;16677;52.224;7.484;2023-07-09T14:28:42;35.80;1.00
29777;DHT22;16677;52.224;7.484;2023-07-09T14:31:22;36.20;1.00
29777;DHT22;16677;52.224;7.484;2023-07-09T14:33:54;35.90;1.00
29777;DHT22;16677;52.224;7.484;2023-07-09T14:36:24;35.10;1.00
29777;DHT22;16677;52.224;7.484;2023-07-09T14:38:51;34.90;1.00
29777;DHT22;16677;52.224;7.484;2023-07-09T14:41:26;35.40;1.00
29777;DHT22;16677;52.224;7.484;2023-07-09T14:43:57;35.70;1.00
29777;DHT22;16677;52.224;7.484;2023-07-09T14:46:25;35.70;1.00
29777;DHT22;16677;52.224;7.484;2023-07-09T14:48:52;35.80;1.00
29777;DHT22;16677;52.224;7.484;2023-07-09T14:51:20;36.00;1.00
29777;DHT22;16677;52.224;7.484;2023-07-09T14:53:47;35.80;1.00
29777;DHT22;16677;52.224;7.484;2023-07-09T14:56:15;35.60;1.00
29777;DHT22;16677;52.224;7.484;2023-07-09T14:58:42;35.70;1.00
29777;DHT22;16677;52.224;7.484;2023-07-09T15:01:14;35.70;1.00
29777;DHT22;16677;52.224;7.484;2023-07-09T15:03:42;35.40;1.00
29777;DHT22;16677;52.224;7.484;2023-07-09T15:06:11;35.40;1.00
29777;DHT22;16677;52.224;7.484;2023-07-09T15:08:38;35.60;1.00
29777;DHT22;16677;52.224;7.484;2023-07-09T15:11:09;35.60;1.00
29777;DHT22;16677;52.224;7.484;2023-07-09T15:13:38;35.50;1.00
29777;DHT22;16677;52.224;7.484;2023-07-09T15:16:05;35.40;1.00
29777;DHT22;16677;52.224;7.484;2023-07-09T15:18:33;35.40;1.00
29777;DHT22;16677;52.224;7.484;2023-07-09T15:21:04;35.20;1.00
29777;DHT22;16677;52.224;7.484;2023-07-09T15:23:36;34.80;1.00
29777;DHT22;16677;52.224;7.484;2023-07-09T15:26:14;34.70;1.00
29777;DHT22;16677;52.224;7.484;2023-07-09T15:28:43;34.70;1.00
29777;DHT22;16677;52.224;7.484;2023-07-09T15:31:13;34.60;1.00
29777;DHT22;16677;52.224;7.484;2023-07-09T15:33:41;34.40;1.00
29777;DHT22;16677;52.224;7.484;2023-07-09T15:36:12;34.20;1.00
29777;DHT22;16677;52.224;7.484;2023-07-09T15:38:39;34.00;1.00
29777;DHT22;16677;52.224;7.484;2023-07-09T15:41:14;33.90;1.00
29777;DHT22;16677;52.224;7.484;2023-07-09T15:43:43;33.80;1.00
29777;DHT22;16677;52.224;7.484;2023-07-09T15:46:21;33.60;1.00
29777;DHT22;16677;52.224;7.484;2023-07-09T15:48:50;33.60;1.00
29777;DHT22;16677;52.224;7.484;2023-07-09T15:51:21;33.50;1.00
29777;DHT22;16677;52.224;7.484;2023-07-09T15:53:51;33.40;1.00
29777;DHT22;16677;52.224;7.484;2023-07-09T15:56:29;33.20;1.00
29777;DHT22;16677;52.224;7.484;2023-07-09T15:58:59;33.00;1.00
29777;DHT22;16677;52.224;7.484;2023-07-09T16:01:26;32.80;1.00
29777;DHT22;16677;52.224;7.484;2023-07-09T16:04:01;32.70;1.00
29777;DHT22;16677;52.224;7.484;2023-07-09T16:06:35;32.60;1.00
29777;DHT22;16677;52.224;7.484;2023-07-09T16:09:06;32.40;1.00
29777;DHT22;16677;52.224;7.484;2023-07-09T16:11:33;32.40;1.00
29777;DHT22;16677;52.224;7.484;2023-07-09T16:14:28;32.10;1.00
29777;DHT22;16677;52.224;7.484;2023-07-09T16:16:59;30.90;1.00
29777;DHT22;16677;52.224;7.484;2023-07-09T16:19:31;26.60;1.00
29777;DHT22;16677;52.224;7.484;2023-07-09T16:22:04;25.90;1.00
29777;DHT22;16677;52.224;7.484;2023-07-09T16:24:36;24.70;1.00
29777;DHT22;16677;52.224;7.484;2023-07-09T16:27:05;23.70;1.00
29777;DHT22;16677;52.224;7.484;2023-07-09T16:29:35;23.00;70.00
29777;DHT22;16677;52.224;7.484;2023-07-09T16:32:04;22.80;90.30
29777;DHT22;16677;52.224;7.484;2023-07-09T16:34:32;22.10;99.90
29777;DHT22;16677;52.224;7.484;2023-07-09T16:37:04;22.20;99.90
29777;DHT22;16677;52.224;7.484;2023-07-09T16:39:44;21.50;99.90
29777;DHT22;16677;52.224;7.484;2023-07-09T16:42:15;21.10;99.90
29777;DHT22;16677;52.224;7.484;2023-07-09T16:44:44;21.00;99.90
29777;DHT22;16677;52.224;7.484;2023-07-09T16:47:19;21.20;99.90
29777;DHT22;16677;52.224;7.484;2023-07-09T16:49:47;21.20;99.90
29777;DHT22;16677;52.224;7.484;2023-07-09T16:52:23;21.20;99.90
29777;DHT22;16677;52.224;7.484;2023-07-09T16:54:54;21.10;99.90
29777;DHT22;16677;52.224;7.484;2023-07-09T16:57:24;21.00;99.90
29777;DHT22;16677;52.224;7.484;2023-07-09T16:59:56;21.00;99.90
29777;DHT22;16677;52.224;7.484;2023-07-09T17:02:40;21.00;99.90